createdAt,value
2023-01-18T00:03:20.247Z,97746.62
2023-01-18T00:07:23.091Z,97743.09
2023-01-18T00:11:26.075Z,97743.86
2023-01-18T00:15:28.978Z,97730.83
2023-01-18T00:19:33.731Z,97732.55
2023-01-18T00:23:36.880Z,97722.48
2023-01-18T00:27:44.297Z,97712.25
2023-01-18T00:31:47.314Z,97698.21
2023-01-18T00:36:01.590Z,97685.34
2023-01-18T00:54:49.665Z,97673.55
2023-01-18T00:58:54.057Z,97667.71
2023-01-18T01:02:59.470Z,97678.20
2023-01-18T01:07:05.263Z,97684.97
2023-01-18T01:11:13.950Z,97693.75
2023-01-18T01:15:35.395Z,97698.64
2023-01-18T01:19:56.554Z,97692.85
2023-01-18T01:24:18.134Z,97687.71
2023-01-18T01:28:20.844Z,97685.58
2023-01-18T01:32:23.650Z,97686.30
2023-01-18T01:36:57.830Z,97685.17
2023-01-18T01:41:07.336Z,97681.46
2023-01-18T01:46:03.112Z,97686.06
2023-01-18T01:50:38.573Z,97694.85
2023-01-18T01:55:02.145Z,97695.96
2023-01-18T01:59:07.410Z,97686.68
2023-01-18T02:03:12.882Z,97683.84
2023-01-18T02:07:42.957Z,97682.64
2023-01-18T02:11:45.697Z,97682.34
2023-01-18T02:15:54.731Z,97679.86
2023-01-18T02:26:08.229Z,97683.64
2023-01-18T02:30:43.977Z,97686.24
2023-01-18T02:34:54.437Z,97684.20
2023-01-18T02:39:06.948Z,97678.44
2023-01-18T02:43:32.668Z,97677.18
2023-01-18T02:47:36.616Z,97680.66
2023-01-18T02:52:01.899Z,97684.52
2023-01-18T02:56:28.349Z,97686.34
2023-01-18T03:00:34.419Z,97683.92
2023-01-18T03:04:45.609Z,97675.02
2023-01-18T03:08:54.592Z,97674.25
2023-01-18T03:13:06.489Z,97672.98
2023-01-18T03:17:29.615Z,97674.52
2023-01-18T03:21:49.411Z,97670.26
2023-01-18T03:25:57.035Z,97675.06
2023-01-18T03:30:24.926Z,97677.11
2023-01-18T03:35:08.167Z,97675.73
2023-01-18T03:39:20.855Z,97669.26
2023-01-18T03:43:27.275Z,97661.65
2023-01-18T03:47:32.390Z,97653.37
2023-01-18T03:52:11.341Z,97650.45
2023-01-18T03:56:28.430Z,97653.61
2023-01-18T04:00:34.427Z,97659.73
2023-01-18T04:13:43.477Z,97631.96
2023-01-18T04:17:49.783Z,97639.22
2023-01-18T04:21:52.573Z,97647.29
2023-01-18T04:25:55.545Z,97643.95
2023-01-18T04:29:58.738Z,97637.55
2023-01-18T04:34:01.625Z,97646.19
2023-01-18T04:38:04.513Z,97648.73
2023-01-18T04:42:07.413Z,97656.54
2023-01-18T04:46:10.225Z,97670.27
2023-01-18T04:50:13.263Z,97680.05
2023-01-18T04:54:18.690Z,97696.37
2023-01-18T04:58:21.410Z,97703.80
2023-01-18T05:02:24.381Z,97700.88
2023-01-18T05:06:27.453Z,97704.52
2023-01-18T05:10:30.640Z,97699.38
2023-01-18T05:14:33.720Z,97698.80
2023-01-18T05:18:36.622Z,97698.30
2023-01-18T05:22:39.488Z,97702.44
2023-01-18T05:26:42.228Z,97688.46
2023-01-18T05:30:45.110Z,97678.08
2023-01-18T05:34:48.109Z,97675.83
2023-01-18T05:38:50.860Z,97678.52
2023-01-18T05:42:53.959Z,97677.50
2023-01-18T05:46:56.949Z,97674.46
2023-01-18T05:50:59.749Z,97666.55
2023-01-18T05:55:02.760Z,97668.97
2023-01-18T05:59:06.026Z,97666.80
2023-01-18T06:03:10.734Z,97670.33
2023-01-18T06:07:15.139Z,97662.11
2023-01-18T06:11:17.917Z,97663.51
2023-01-18T06:15:20.854Z,97664.60
2023-01-18T06:19:23.696Z,97672.85
2023-01-18T06:23:27.705Z,97676.85
2023-01-18T06:27:30.511Z,97684.58
2023-01-18T06:45:52.428Z,97682.64
2023-01-18T06:59:09.129Z,97681.04
2023-01-18T07:03:12.115Z,97679.98
2023-01-18T07:07:16.294Z,97687.10
2023-01-18T07:11:19.409Z,97692.52
2023-01-18T07:15:23.065Z,97697.23
2023-01-18T07:19:26.202Z,97704.02
2023-01-18T07:23:30.490Z,97706.52
2023-01-18T07:27:33.478Z,97709.79
2023-01-18T07:31:38.294Z,97709.73
2023-01-18T07:35:41.178Z,97705.89
2023-01-18T07:39:44.130Z,97713.96
2023-01-18T07:43:47.348Z,97722.71
2023-01-18T07:47:50.194Z,97725.38
2023-01-18T07:51:53.224Z,97745.91
2023-01-18T07:56:02.472Z,97759.37
2023-01-18T08:00:07.322Z,97761.16
2023-01-18T08:04:10.211Z,97765.95
2023-01-18T08:08:16.394Z,97772.40
2023-01-18T08:12:19.415Z,97769.70
2023-01-18T08:16:22.485Z,97766.40
2023-01-18T08:20:25.465Z,97770.55
2023-01-18T08:24:31.415Z,97771.11
2023-01-18T08:28:35.031Z,97776.55
2023-01-18T08:32:38.028Z,97777.77
2023-01-18T08:36:41.041Z,97780.77
2023-01-18T08:40:44.023Z,97773.45
2023-01-18T08:44:48.543Z,97776.22
2023-01-18T08:48:53.538Z,97775.69
2023-01-18T08:52:57.356Z,97781.41
2023-01-18T08:57:02.287Z,97786.45
2023-01-18T09:01:07.170Z,97789.66
2023-01-18T09:05:10.492Z,97785.48
2023-01-18T09:09:13.421Z,97783.60
2023-01-18T09:13:16.255Z,97780.65
2023-01-18T09:17:21.319Z,97781.34
2023-01-18T09:21:24.399Z,97780.13
2023-01-18T09:25:27.325Z,97787.91
2023-01-18T09:29:31.593Z,97790.05
2023-01-18T09:33:37.788Z,97786.60
2023-01-18T09:37:41.124Z,97786.77
2023-01-18T09:41:49.723Z,97798.41
2023-01-18T09:45:53.618Z,97802.45
2023-01-18T09:50:02.455Z,97806.11
2023-01-18T09:54:11.702Z,97810.66
2023-01-18T09:58:31.949Z,97812.25
2023-01-18T10:02:39.451Z,97811.51
2023-01-18T10:07:00.741Z,97813.23
2023-01-18T10:11:12.494Z,97815.67
2023-01-18T10:15:26.705Z,97816.77
2023-01-18T10:19:32.021Z,97817.65
2023-01-18T10:23:44.413Z,97812.90
2023-01-18T10:28:04.122Z,97807.23
2023-01-18T10:32:15.179Z,97806.93
2023-01-18T10:36:20.806Z,97808.64
2023-01-18T10:40:23.556Z,97808.04
2023-01-18T10:44:26.451Z,97814.52
2023-01-18T10:48:31.017Z,97818.36
2023-01-18T10:52:34.138Z,97820.42
2023-01-18T10:56:37.628Z,97822.88
2023-01-18T11:00:40.879Z,97830.42
2023-01-18T11:04:43.906Z,97832.95
2023-01-18T11:08:48.749Z,97834.83
2023-01-18T11:12:53.246Z,97835.27
2023-01-18T11:17:10.982Z,97835.34
2023-01-18T11:21:15.494Z,97837.02
2023-01-18T11:25:18.456Z,97841.27
2023-01-18T11:29:26.543Z,97834.89
2023-01-18T11:33:31.420Z,97834.79
2023-01-18T11:37:36.904Z,97833.36
2023-01-18T11:41:39.953Z,97837.89
2023-01-18T11:45:59.710Z,97836.48
2023-01-18T11:50:21.981Z,97842.48
2023-01-18T11:54:46.919Z,97845.09
2023-01-18T11:58:49.982Z,97843.06
2023-01-18T12:03:06.097Z,97852.83
2023-01-18T12:07:21.642Z,97866.14
2023-01-18T12:11:33.792Z,97875.64
2023-01-18T12:15:53.529Z,97877.80
2023-01-18T12:20:21.062Z,97887.83
2023-01-18T12:24:53.609Z,97901.25
2023-01-18T12:29:10.443Z,97906.64
2023-01-18T12:33:43.878Z,97913.20
2023-01-18T12:38:09.321Z,97919.21
2023-01-18T12:42:40.475Z,97921.43
2023-01-18T12:46:46.694Z,97931.25
2023-01-18T12:50:51.150Z,97937.48
2023-01-18T12:54:57.468Z,97937.83
2023-01-18T12:59:08.357Z,97941.92
2023-01-18T13:03:16.481Z,97947.80
2023-01-18T13:07:25.606Z,97948.56
2023-01-18T13:11:37.835Z,97956.55
2023-01-18T13:15:49.463Z,97955.88
2023-01-18T13:20:13.892Z,97959.38
2023-01-18T13:24:42.987Z,97966.15
2023-01-18T13:28:46.428Z,97968.77
2023-01-18T13:32:49.629Z,97984.48
2023-01-18T13:37:02.463Z,97993.34
2023-01-18T13:41:23.332Z,98007.42
2023-01-18T13:45:29.895Z,98019.24
2023-01-18T13:49:38.609Z,98038.48
2023-01-18T13:58:28.917Z,98049.96
2023-01-18T14:02:43.354Z,98054.27
2023-01-18T14:06:48.250Z,98058.81
2023-01-18T14:11:04.534Z,98072.79
2023-01-18T14:15:46.566Z,98078.98
2023-01-18T14:19:49.571Z,98083.39
2023-01-18T14:24:40.342Z,98084.48
2023-01-18T14:28:49.492Z,98093.94
2023-01-18T14:33:24.075Z,98100.64
2023-01-18T14:37:35.643Z,98108.71
2023-01-18T14:41:43.372Z,98119.60
2023-01-18T14:45:54.037Z,98122.13
2023-01-18T14:49:56.928Z,98129.58
2023-01-18T14:54:02.913Z,98134.55
2023-01-18T14:58:16.199Z,98143.73
2023-01-18T15:02:24.821Z,98146.82
2023-01-18T15:06:44.583Z,98156.58
2023-01-18T15:10:48.518Z,98167.46
2023-01-18T15:14:51.473Z,98178.21
2023-01-18T15:19:03.094Z,98180.27
2023-01-18T15:23:06.135Z,98186.40
2023-01-18T15:27:15.553Z,98193.75
2023-01-18T15:31:18.332Z,98198.67
2023-01-18T15:35:25.618Z,98207.22
2023-01-18T15:39:28.905Z,98211.21
2023-01-18T15:43:33.589Z,98212.39
2023-01-18T15:47:39.987Z,98223.43
2023-01-18T15:51:52.701Z,98223.48
2023-01-18T15:56:48.444Z,98233.43
2023-01-18T16:01:17.148Z,98239.55
2023-01-18T16:05:23.402Z,98247.19
2023-01-18T16:09:26.597Z,98250.23
2023-01-18T16:13:38.408Z,98244.51
2023-01-18T16:17:43.873Z,98246.50
2023-01-18T16:21:51.384Z,98254.03
2023-01-18T16:26:03.686Z,98264.81
2023-01-18T16:30:20.099Z,98271.44
2023-01-18T16:34:25.707Z,98268.07
2023-01-18T16:38:28.613Z,98266.23
2023-01-18T16:42:38.416Z,98279.04
2023-01-18T16:46:41.496Z,98285.94
2023-01-18T16:50:45.208Z,98292.04
2023-01-18T16:54:48.013Z,98303.05
2023-01-18T16:58:55.087Z,98308.17
2023-01-18T17:02:57.932Z,98322.06
2023-01-18T17:07:01.042Z,98328.95
2023-01-18T17:11:04.428Z,98337.92
2023-01-18T17:15:07.757Z,98346.64
2023-01-18T17:19:15.000Z,98346.74
2023-01-18T17:23:22.943Z,98349.52
2023-01-18T17:27:25.738Z,98361.52
2023-01-18T17:31:28.913Z,98366.62
2023-01-18T17:35:32.142Z,98380.14
2023-01-18T17:39:43.333Z,98388.66
2023-01-18T17:43:53.741Z,98397.99
2023-01-18T17:47:56.572Z,98398.90
2023-01-18T17:51:59.341Z,98401.59
2023-01-18T17:56:09.503Z,98402.86
2023-01-18T18:00:14.249Z,98401.55
2023-01-18T18:04:33.375Z,98409.89
2023-01-18T18:08:37.030Z,98414.43
2023-01-18T18:12:39.829Z,98423.09
2023-01-18T18:16:44.604Z,98434.29
2023-01-18T18:20:47.494Z,98438.77
2023-01-18T18:24:51.891Z,98438.76
2023-01-18T18:28:54.670Z,98440.89
2023-01-18T18:32:58.098Z,98441.67
2023-01-18T18:37:01.784Z,98444.19
2023-01-18T18:41:07.387Z,98449.43
2023-01-18T18:45:10.603Z,98455.33
2023-01-18T18:49:15.876Z,98463.59
2023-01-18T18:53:21.437Z,98469.41
2023-01-18T18:57:28.999Z,98474.85
2023-01-18T19:01:32.124Z,98484.34
2023-01-18T19:05:35.974Z,98492.27
2023-01-18T19:09:39.097Z,98497.70
2023-01-18T19:13:43.104Z,98499.38
2023-01-18T19:17:50.419Z,98503.70
2023-01-18T19:21:53.248Z,98517.63
2023-01-18T19:26:11.805Z,98523.09
2023-01-18T19:30:18.169Z,98525.02
2023-01-18T19:34:21.984Z,98529.85
2023-01-18T19:38:25.191Z,98540.24
2023-01-18T19:42:29.231Z,98546.84
2023-01-18T19:46:34.149Z,98554.13
2023-01-18T19:50:37.283Z,98557.79
2023-01-18T19:54:41.254Z,98566.98
2023-01-18T19:58:44.634Z,98581.53
2023-01-18T20:02:47.461Z,98589.36
2023-01-18T20:06:50.544Z,98589.49
2023-01-18T20:10:53.365Z,98595.54
2023-01-18T20:14:56.352Z,98602.80
2023-01-18T20:18:59.140Z,98605.65
2023-01-18T20:23:03.338Z,98612.27
2023-01-18T20:27:15.825Z,98623.44
2023-01-18T20:31:20.569Z,98640.69
2023-01-18T20:35:23.531Z,98647.89
2023-01-18T20:39:27.479Z,98655.32
2023-01-18T20:43:30.622Z,98661.43
2023-01-18T20:47:33.373Z,98673.88
2023-01-18T20:51:36.250Z,98676.40
2023-01-18T20:55:39.943Z,98680.23
2023-01-18T20:59:42.684Z,98677.42
2023-01-18T21:03:47.329Z,98670.63
2023-01-18T21:07:50.230Z,98657.61
2023-01-18T21:12:18.193Z,98646.85
2023-01-18T21:16:22.062Z,98636.70
2023-01-18T21:20:24.841Z,98631.26
2023-01-18T21:24:27.595Z,98626.02
2023-01-18T21:29:01.131Z,98629.41
2023-01-18T21:33:03.864Z,98635.05
2023-01-18T21:37:58.091Z,98640.09
2023-01-18T21:42:39.847Z,98648.30
2023-01-18T21:46:51.285Z,98665.70
2023-01-18T21:51:15.470Z,98680.23
2023-01-18T21:55:18.557Z,98701.72
2023-01-18T21:59:21.360Z,98714.06
2023-01-18T22:03:24.132Z,98721.09
2023-01-18T22:07:30.275Z,98735.32
2023-01-18T22:11:33.143Z,98749.38
2023-01-18T22:15:40.424Z,98755.13
2023-01-18T22:19:44.029Z,98753.23
2023-01-18T22:23:46.784Z,98764.63
2023-01-18T22:27:49.600Z,98776.23
2023-01-18T22:31:56.055Z,98788.99
2023-01-18T22:36:00.226Z,98793.61
2023-01-18T22:40:03.590Z,98791.46
2023-01-18T22:44:06.569Z,98784.90
2023-01-18T22:48:11.474Z,98787.52
2023-01-18T22:52:14.440Z,98793.55
2023-01-18T22:56:19.859Z,98789.23
2023-01-18T23:00:24.560Z,98793.64
2023-01-18T23:04:29.491Z,98802.61
2023-01-18T23:08:44.634Z,98802.80
2023-01-18T23:12:47.495Z,98812.27
2023-01-18T23:21:29.609Z,98829.73
2023-01-18T23:25:33.604Z,98822.95
2023-01-18T23:29:36.724Z,98814.25
2023-01-18T23:33:39.919Z,98812.65
2023-01-18T23:37:42.709Z,98819.38
2023-01-18T23:42:04.187Z,98819.38
2023-01-18T23:46:25.993Z,98821.47
2023-01-18T23:50:47.419Z,98826.30
2023-01-18T23:54:50.153Z,98829.05
2023-01-18T23:58:54.826Z,98834.74
